createdAt,value
2018-12-30T00:00:02.176Z,98.97
2018-12-30T00:01:02.159Z,98.46
2018-12-30T00:02:02.593Z,97.94
2018-12-30T00:03:02.134Z,98.21
2018-12-30T00:04:02.180Z,97.84
2018-12-30T00:05:02.120Z,97.59
2018-12-30T00:06:02.096Z,97.69
2018-12-30T00:07:02.096Z,97.89
2018-12-30T00:08:02.605Z,97.94
2018-12-30T00:09:02.072Z,97.11
2018-12-30T00:10:02.082Z,97.11
2018-12-30T00:11:02.096Z,98.05
2018-12-30T00:12:02.049Z,97.11
2018-12-30T00:13:02.027Z,97.69
2018-12-30T00:14:02.100Z,97.53
2018-12-30T00:15:02.228Z,98.10
2018-12-30T00:16:02.041Z,98.35
2018-12-30T00:17:01.990Z,97.42
2018-12-30T00:18:01.978Z,97.17
2018-12-30T00:19:01.984Z,98.41
2018-12-30T00:20:01.982Z,98.31
2018-12-30T00:21:08.808Z,98.97
2018-12-30T00:22:02.926Z,98.97
2018-12-30T00:23:01.934Z,98.35
2018-12-30T00:24:01.931Z,98.46
2018-12-30T00:25:01.919Z,98.46
2018-12-30T00:26:01.967Z,98.35
2018-12-30T00:27:01.875Z,98.87
2018-12-30T00:28:01.860Z,98.77
2018-12-30T00:29:01.868Z,98.46
2018-12-30T00:30:01.924Z,98.56
2018-12-30T00:31:01.864Z,98.46
2018-12-30T00:32:01.816Z,97.94
2018-12-30T00:33:01.808Z,98.05
2018-12-30T00:34:01.838Z,98.46
2018-12-30T00:35:01.802Z,97.94
2018-12-30T00:36:01.805Z,98.21
2018-12-30T00:37:01.776Z,98.97
2018-12-30T00:38:01.771Z,98.77
2018-12-30T00:39:01.752Z,98.05
2018-12-30T00:40:01.743Z,98.97
2018-12-30T00:41:01.750Z,99.18
2018-12-30T00:42:01.737Z,98.77
2018-12-30T00:43:01.702Z,98.66
2018-12-30T00:44:01.737Z,98.66
2018-12-30T00:45:01.682Z,99.49
2018-12-30T00:46:01.685Z,98.97
2018-12-30T00:47:01.658Z,99.80
2018-12-30T00:48:01.679Z,99.49
2018-12-30T00:49:01.649Z,99.60
2018-12-30T00:50:01.627Z,99.18
2018-12-30T00:51:01.631Z,99.60
2018-12-30T00:52:01.605Z,99.18
2018-12-30T00:53:01.678Z,98.87
2018-12-30T00:54:01.608Z,99.60
2018-12-30T00:55:01.799Z,99.49
2018-12-30T00:56:01.573Z,99.60
2018-12-30T00:57:01.557Z,99.29
2018-12-30T00:58:01.547Z,99.49
2018-12-30T00:59:01.572Z,99.49
2018-12-30T01:00:01.541Z,99.91
2018-12-30T01:01:01.511Z,99.91
2018-12-30T01:02:01.498Z,99.99
2018-12-30T01:03:01.486Z,99.99
2018-12-30T01:04:01.485Z,99.85
2018-12-30T01:05:01.492Z,99.85
2018-12-30T01:06:01.478Z,99.99
2018-12-30T01:07:01.447Z,99.85
2018-12-30T01:08:01.437Z,99.64
2018-12-30T01:09:01.429Z,99.70
2018-12-30T01:10:01.416Z,99.85
2018-12-30T01:11:01.402Z,99.99
2018-12-30T01:12:01.597Z,99.95
2018-12-30T01:13:01.385Z,99.99
2018-12-30T01:14:01.373Z,99.85
2018-12-30T01:15:01.361Z,99.99
2018-12-30T01:16:01.578Z,99.99
2018-12-30T01:17:01.351Z,99.99
2018-12-30T01:18:01.394Z,99.99
2018-12-30T01:19:01.335Z,99.99
2018-12-30T01:20:01.322Z,99.99
2018-12-30T01:21:01.316Z,99.99
2018-12-30T01:22:01.298Z,99.99
2018-12-30T01:23:01.279Z,99.99
2018-12-30T01:24:01.272Z,99.99
2018-12-30T01:25:01.252Z,99.99
2018-12-30T01:26:01.269Z,99.99
2018-12-30T01:27:01.276Z,99.99
2018-12-30T01:28:01.224Z,99.99
2018-12-30T01:29:01.230Z,99.99
2018-12-30T01:30:01.208Z,99.99
2018-12-30T01:31:01.222Z,99.99
2018-12-30T01:32:01.217Z,99.99
2018-12-30T01:33:01.185Z,99.99
2018-12-30T01:34:01.243Z,99.99
2018-12-30T01:35:01.154Z,99.99
2018-12-30T01:36:01.189Z,99.99
2018-12-30T01:37:01.130Z,99.95
2018-12-30T01:38:01.119Z,99.85
2018-12-30T01:39:01.586Z,99.99
2018-12-30T01:40:01.185Z,99.99
2018-12-30T01:41:01.093Z,99.23
2018-12-30T01:42:01.075Z,99.64
2018-12-30T01:43:01.074Z,99.33
2018-12-30T01:44:01.053Z,99.13
2018-12-30T01:45:01.073Z,99.54
2018-12-30T01:46:01.047Z,99.85
2018-12-30T01:47:01.024Z,99.64
2018-12-30T01:48:01.019Z,99.54
2018-12-30T01:49:01.010Z,99.02
2018-12-30T01:50:00.999Z,99.43
2018-12-30T01:51:01.059Z,99.64
2018-12-30T01:52:00.979Z,99.99
2018-12-30T01:53:00.972Z,99.43
2018-12-30T01:54:00.964Z,99.64
2018-12-30T01:55:00.952Z,99.85
2018-12-30T01:56:00.957Z,98.82
2018-12-30T01:57:00.935Z,98.71
2018-12-30T01:58:00.948Z,98.50
2018-12-30T01:59:00.909Z,98.40
2018-12-30T02:00:00.894Z,98.71
2018-12-30T02:01:00.888Z,98.50
2018-12-30T02:02:00.888Z,99.02
2018-12-30T02:03:00.926Z,99.23
2018-12-30T02:04:00.866Z,99.54
2018-12-30T02:05:00.852Z,99.02
2018-12-30T02:06:00.895Z,99.54
2018-12-30T02:07:00.842Z,99.13
2018-12-30T02:08:00.815Z,99.64
2018-12-30T02:09:01.141Z,99.33
2018-12-30T02:10:00.810Z,99.43
2018-12-30T02:11:00.808Z,99.85
2018-12-30T02:12:00.813Z,99.74
2018-12-30T02:13:00.754Z,99.99
2018-12-30T02:14:00.754Z,99.99
2018-12-30T02:15:00.862Z,99.99
2018-12-30T02:16:00.740Z,99.99
2018-12-30T02:17:00.776Z,99.99
2018-12-30T02:18:00.697Z,99.99
2018-12-30T02:19:00.700Z,99.95
2018-12-30T02:20:00.762Z,99.99
2018-12-30T02:21:01.108Z,99.99
2018-12-30T02:22:00.653Z,99.85
2018-12-30T02:23:07.734Z,99.48
2018-12-30T02:24:00.720Z,99.54
2018-12-30T02:25:00.627Z,98.92
2018-12-30T02:26:00.661Z,98.92
2018-12-30T02:27:00.604Z,98.61
2018-12-30T02:28:00.590Z,99.33
2018-12-30T02:29:00.583Z,99.02
2018-12-30T02:30:00.662Z,98.61
2018-12-30T02:31:00.567Z,98.50
2018-12-30T02:32:00.569Z,98.09
2018-12-30T02:33:00.647Z,97.16
2018-12-30T02:34:00.538Z,97.22
2018-12-30T02:35:00.543Z,97.16
2018-12-30T02:36:00.542Z,97.67
2018-12-30T02:37:00.526Z,98.50
2018-12-30T02:38:00.562Z,98.09
2018-12-30T02:39:00.504Z,98.61
2018-12-30T02:40:00.479Z,98.40
2018-12-30T02:41:00.530Z,97.57
2018-12-30T02:42:00.501Z,97.78
2018-12-30T02:43:00.444Z,97.06
2018-12-30T02:44:00.517Z,96.95
2018-12-30T02:45:00.421Z,97.26
2018-12-30T02:46:00.422Z,97.57
2018-12-30T02:47:00.639Z,97.67
2018-12-30T02:48:00.451Z,97.57
2018-12-30T02:49:00.411Z,98.30
2018-12-30T02:50:00.416Z,98.50
2018-12-30T02:51:00.354Z,98.50
2018-12-30T02:52:00.354Z,97.99
2018-12-30T02:53:00.384Z,97.26
2018-12-30T02:56:35.919Z,97.57
2018-12-30T02:57:35.894Z,97.16
2018-12-30T02:58:35.915Z,96.95
2018-12-30T02:59:35.865Z,96.64
2018-12-30T03:00:35.838Z,96.12
2018-12-30T03:01:35.918Z,96.29
2018-12-30T03:02:35.935Z,97.06
2018-12-30T03:03:35.855Z,97.16
2018-12-30T03:04:35.819Z,97.78
2018-12-30T03:05:35.838Z,97.57
2018-12-30T03:06:35.885Z,97.26
2018-12-30T03:07:35.797Z,96.95
2018-12-30T03:08:35.829Z,96.54
2018-12-30T03:09:35.772Z,96.64
2018-12-30T03:10:35.739Z,97.47
2018-12-30T03:11:35.749Z,97.67
2018-12-30T03:12:35.766Z,97.99
2018-12-30T03:13:35.715Z,97.26
2018-12-30T03:14:35.735Z,97.62
2018-12-30T03:15:35.688Z,97.99
2018-12-30T03:16:35.712Z,97.36
2018-12-30T03:17:35.707Z,96.85
2018-12-30T03:18:35.697Z,97.16
2018-12-30T03:19:35.644Z,97.57
2018-12-30T03:20:35.664Z,97.78
2018-12-30T03:21:35.645Z,98.19
2018-12-30T03:22:35.665Z,98.40
2018-12-30T03:23:35.609Z,98.61
2018-12-30T03:24:35.596Z,98.71
2018-12-30T03:25:35.601Z,98.65
2018-12-30T03:27:28.251Z,98.86
2018-12-30T03:28:28.209Z,98.71
2018-12-30T03:29:28.217Z,99.07
2018-12-30T03:30:28.284Z,98.71
2018-12-30T03:31:28.190Z,99.02
2018-12-30T03:32:28.234Z,99.43
2018-12-30T03:33:28.179Z,99.43
2018-12-30T03:34:28.185Z,99.43
2018-12-30T03:35:28.157Z,99.54
2018-12-30T03:36:28.133Z,99.27
2018-12-30T03:37:28.193Z,99.54
2018-12-30T03:38:28.125Z,98.71
2018-12-30T03:39:28.204Z,99.02
2018-12-30T03:40:28.116Z,99.13
2018-12-30T03:41:28.117Z,99.43
2018-12-30T03:42:28.121Z,99.43
2018-12-30T03:43:28.065Z,98.61
2018-12-30T03:44:28.040Z,98.71
2018-12-30T03:45:28.077Z,98.61
2018-12-30T03:46:28.049Z,98.40
2018-12-30T03:47:28.669Z,98.40
2018-12-30T03:48:28.048Z,98.92
2018-12-30T03:49:28.017Z,98.71
2018-12-30T03:50:27.983Z,99.13
2018-12-30T03:51:27.985Z,98.61
2018-12-30T03:52:27.967Z,98.40
2018-12-30T03:53:28.034Z,96.95
2018-12-30T03:54:27.945Z,97.78
2018-12-30T03:55:27.930Z,97.88
2018-12-30T03:56:27.926Z,97.67
2018-12-30T03:58:23.724Z,98.09
2018-12-30T03:59:23.733Z,98.09
2018-12-30T04:00:23.677Z,98.09
2018-12-30T04:01:23.680Z,98.19
2018-12-30T04:02:23.669Z,98.61
2018-12-30T04:03:23.641Z,98.61
2018-12-30T04:04:23.655Z,98.71
2018-12-30T04:05:23.682Z,98.50
2018-12-30T04:06:23.621Z,98.71
2018-12-30T04:07:23.616Z,98.40
2018-12-30T04:08:23.595Z,98.61
2018-12-30T04:09:23.575Z,98.19
2018-12-30T04:10:23.582Z,98.71
2018-12-30T04:11:23.881Z,98.71
2018-12-30T04:12:23.757Z,98.71
2018-12-30T04:13:23.548Z,98.71
2018-12-30T04:14:23.564Z,99.13
2018-12-30T04:15:23.530Z,98.61
2018-12-30T04:16:23.530Z,98.92
2018-12-30T04:17:23.525Z,99.54
2018-12-30T04:18:23.498Z,99.23
2018-12-30T04:19:23.480Z,99.23
2018-12-30T04:20:23.464Z,99.43
2018-12-30T04:21:23.501Z,99.33
2018-12-30T04:22:23.453Z,98.61
2018-12-30T04:23:23.552Z,98.71
2018-12-30T04:24:23.483Z,99.13
2018-12-30T04:25:23.432Z,99.64
2018-12-30T04:26:23.412Z,99.43
2018-12-30T04:27:23.383Z,98.82
2018-12-30T04:28:23.391Z,99.02
2018-12-30T04:29:23.859Z,98.82
2018-12-30T04:30:23.419Z,98.71
2018-12-30T04:31:23.391Z,98.61
2018-12-30T04:32:23.360Z,98.19
2018-12-30T04:33:23.317Z,98.61
2018-12-30T04:34:23.325Z,98.09
2018-12-30T04:35:23.479Z,97.99
2018-12-30T04:36:23.299Z,98.19
2018-12-30T04:37:23.296Z,97.88
2018-12-30T04:38:23.269Z,98.61
2018-12-30T04:39:23.279Z,98.71
2018-12-30T04:40:23.247Z,98.50
2018-12-30T04:41:23.380Z,99.13
2018-12-30T04:42:23.292Z,98.92
2018-12-30T04:43:23.281Z,98.82
2018-12-30T04:44:23.241Z,98.92
2018-12-30T04:45:23.212Z,98.71
2018-12-30T04:46:23.205Z,98.75
2018-12-30T04:47:23.185Z,98.82
2018-12-30T04:48:23.382Z,99.64
2018-12-30T04:49:23.168Z,98.61
2018-12-30T04:50:23.148Z,98.82
2018-12-30T04:51:23.179Z,98.71
2018-12-30T04:52:25.830Z,98.82
2018-12-30T04:53:23.150Z,98.86
2018-12-30T04:54:23.119Z,99.13
2018-12-30T04:55:23.122Z,98.92
2018-12-30T04:56:23.115Z,98.71
2018-12-30T04:57:23.067Z,98.61
2018-12-30T04:59:40.599Z,99.38
2018-12-30T05:00:40.548Z,99.79
2018-12-30T05:01:40.549Z,99.43
2018-12-30T05:02:40.544Z,99.43
2018-12-30T05:03:41.050Z,99.64
2018-12-30T05:04:40.510Z,99.85
2018-12-30T05:05:40.514Z,98.96
2018-12-30T05:06:40.528Z,99.43
2018-12-30T05:07:40.474Z,99.58
2018-12-30T05:08:40.562Z,99.43
2018-12-30T05:09:40.570Z,99.07
2018-12-30T05:10:40.459Z,99.43
2018-12-30T05:11:40.466Z,99.43
2018-12-30T05:12:40.455Z,99.58
2018-12-30T05:13:40.448Z,99.64
2018-12-30T05:14:40.450Z,99.48
2018-12-30T05:15:40.413Z,99.69
2018-12-30T05:16:40.408Z,98.75
2018-12-30T05:17:40.368Z,98.61
2018-12-30T05:18:40.351Z,98.82
2018-12-30T05:19:40.339Z,98.40
2018-12-30T05:20:40.404Z,98.92
2018-12-30T05:21:40.366Z,98.82
2018-12-30T05:22:40.332Z,98.82
2018-12-30T05:23:40.328Z,98.82
2018-12-30T05:24:40.298Z,98.71
2018-12-30T05:25:40.464Z,99.54
2018-12-30T05:26:40.325Z,99.43
2018-12-30T05:27:40.291Z,99.33
2018-12-30T05:28:40.257Z,99.48
2018-12-30T05:30:37.317Z,99.79
2018-12-30T05:31:37.291Z,99.85
2018-12-30T05:32:37.320Z,99.27
2018-12-30T05:33:37.277Z,98.75
2018-12-30T05:34:37.260Z,98.92
2018-12-30T05:35:37.263Z,99.23
2018-12-30T05:36:37.260Z,99.38
2018-12-30T05:37:37.319Z,99.33
2018-12-30T05:38:37.250Z,99.74
2018-12-30T05:39:37.226Z,99.74
2018-12-30T05:40:37.204Z,99.27
2018-12-30T05:41:37.223Z,98.71
2018-12-30T05:42:37.177Z,98.71
2018-12-30T05:43:37.186Z,99.23
2018-12-30T05:44:37.199Z,99.43
2018-12-30T05:45:37.151Z,99.02
2018-12-30T05:46:37.143Z,99.02
2018-12-30T05:47:37.183Z,98.92
2018-12-30T05:48:37.882Z,98.92
2018-12-30T05:49:37.114Z,98.50
2018-12-30T05:50:37.182Z,99.02
2018-12-30T05:51:37.077Z,98.61
2018-12-30T05:52:41.846Z,99.02
2018-12-30T05:53:38.058Z,98.71
2018-12-30T05:54:37.061Z,98.82
2018-12-30T05:55:37.042Z,98.61
2018-12-30T05:56:37.068Z,99.64
2018-12-30T05:57:37.030Z,99.23
2018-12-30T05:58:37.007Z,99.74
2018-12-30T05:59:37.064Z,99.54
2018-12-30T06:04:22.564Z,99.99
2018-12-30T06:05:22.555Z,99.99
2018-12-30T06:06:22.556Z,99.99
2018-12-30T06:07:22.532Z,99.99
2018-12-30T06:08:22.543Z,99.99
2018-12-30T06:09:22.570Z,99.33
2018-12-30T06:10:22.545Z,99.33
2018-12-30T06:11:22.500Z,99.54
2018-12-30T06:12:22.487Z,99.95
2018-12-30T06:13:22.501Z,99.99
2018-12-30T06:14:22.533Z,99.99
2018-12-30T06:15:22.479Z,99.99
2018-12-30T06:16:22.431Z,99.99
2018-12-30T06:17:22.426Z,99.74
2018-12-30T06:18:22.423Z,99.64
2018-12-30T06:19:22.441Z,99.99
2018-12-30T06:20:22.488Z,99.74
2018-12-30T06:21:22.444Z,99.23
2018-12-30T06:22:22.370Z,99.64
2018-12-30T06:23:22.361Z,99.23
2018-12-30T06:24:22.426Z,98.92
2018-12-30T06:25:22.376Z,98.82
2018-12-30T06:26:22.323Z,99.54
2018-12-30T06:27:22.318Z,99.02
2018-12-30T06:28:22.322Z,99.64
2018-12-30T06:29:22.421Z,99.23
2018-12-30T06:30:22.271Z,99.64
2018-12-30T06:31:22.280Z,99.64
2018-12-30T06:32:22.285Z,99.74
2018-12-30T06:33:22.285Z,99.95
2018-12-30T06:35:32.434Z,99.99
2018-12-30T06:36:32.431Z,99.99
2018-12-30T06:37:32.395Z,99.99
2018-12-30T06:38:32.400Z,99.95
2018-12-30T06:39:32.735Z,99.74
2018-12-30T06:40:32.380Z,99.85
2018-12-30T06:41:32.470Z,99.99
2018-12-30T06:42:32.365Z,99.99
2018-12-30T06:43:32.321Z,99.95
2018-12-30T06:44:32.360Z,99.99
2018-12-30T06:45:32.383Z,99.74
2018-12-30T06:46:32.340Z,99.99
2018-12-30T06:47:32.295Z,99.85
2018-12-30T06:48:32.288Z,99.99
2018-12-30T06:49:32.300Z,99.99
2018-12-30T06:50:32.312Z,99.99
2018-12-30T06:51:32.309Z,99.99
2018-12-30T06:52:32.252Z,99.95
2018-12-30T06:53:32.237Z,99.85
2018-12-30T06:54:32.226Z,99.95
2018-12-30T06:55:32.218Z,99.85
2018-12-30T06:56:32.244Z,99.85
2018-12-30T06:57:32.183Z,99.99
2018-12-30T06:58:32.194Z,99.99
2018-12-30T06:59:32.232Z,99.99
2018-12-30T07:00:32.158Z,99.99
2018-12-30T07:01:32.148Z,99.85
2018-12-30T07:02:32.499Z,99.95
2018-12-30T07:03:32.115Z,99.74
2018-12-30T07:04:32.116Z,99.99
2018-12-30T07:08:08.256Z,99.95
2018-12-30T07:09:08.224Z,99.99
2018-12-30T07:10:08.181Z,99.99
2018-12-30T07:11:08.191Z,99.99
2018-12-30T07:12:08.197Z,99.85
2018-12-30T07:13:08.142Z,99.85
2018-12-30T07:14:08.669Z,99.74
2018-12-30T07:15:08.114Z,99.99
2018-12-30T07:16:08.099Z,99.99
2018-12-30T07:17:08.090Z,99.99
2018-12-30T07:18:08.090Z,99.99
2018-12-30T07:19:08.086Z,99.85
2018-12-30T07:20:08.115Z,99.99
2018-12-30T07:21:08.049Z,99.99
2018-12-30T07:22:08.041Z,99.99
2018-12-30T07:23:08.047Z,99.95
2018-12-30T07:24:08.010Z,99.99
2018-12-30T07:25:08.070Z,99.99
2018-12-30T07:26:08.001Z,99.74
2018-12-30T07:27:08.032Z,99.23
2018-12-30T07:28:08.016Z,99.74
2018-12-30T07:29:07.964Z,99.18
2018-12-30T07:30:08.030Z,99.54
2018-12-30T07:31:07.954Z,99.33
2018-12-30T07:32:07.932Z,99.23
2018-12-30T07:33:07.946Z,99.23
2018-12-30T07:34:07.939Z,99.54
2018-12-30T07:35:07.910Z,99.43
2018-12-30T07:36:08.157Z,99.85
2018-12-30T07:37:07.871Z,99.99
2018-12-30T07:40:16.893Z,99.99
2018-12-30T07:41:17.425Z,99.99
2018-12-30T07:42:16.870Z,99.95
2018-12-30T07:43:16.860Z,99.99
2018-12-30T07:44:16.846Z,99.95
2018-12-30T07:45:16.868Z,99.85
2018-12-30T07:46:16.855Z,99.70
2018-12-30T07:47:16.857Z,99.99
2018-12-30T07:48:16.809Z,99.99
2018-12-30T07:49:16.803Z,99.99
2018-12-30T07:50:16.910Z,99.85
2018-12-30T07:51:16.790Z,99.99
2018-12-30T07:52:16.765Z,99.74
2018-12-30T07:53:16.788Z,99.74
2018-12-30T07:54:16.736Z,99.85
2018-12-30T07:55:16.757Z,99.99
2018-12-30T07:56:16.750Z,99.99
2018-12-30T07:57:16.719Z,99.99
2018-12-30T07:58:16.704Z,99.74
2018-12-30T07:59:16.689Z,99.99
2018-12-30T08:00:16.676Z,99.80
2018-12-30T08:01:16.649Z,99.95
2018-12-30T08:02:16.695Z,99.95
2018-12-30T08:03:16.647Z,99.99
2018-12-30T08:04:16.647Z,99.99
2018-12-30T08:05:16.925Z,99.99
2018-12-30T08:06:16.633Z,99.74
2018-12-30T08:07:16.607Z,99.99
2018-12-30T08:08:16.609Z,99.99
2018-12-30T08:09:16.585Z,99.99
2018-12-30T08:10:16.600Z,99.99
2018-12-30T08:11:16.934Z,99.99
2018-12-30T08:12:16.574Z,99.95
2018-12-30T08:13:16.672Z,99.99
2018-12-30T08:14:16.534Z,99.70
2018-12-30T08:15:16.496Z,99.85
2018-12-30T08:16:16.567Z,99.99
2018-12-30T08:17:16.528Z,99.99
2018-12-30T08:18:16.486Z,99.95
2018-12-30T08:19:16.482Z,99.95
2018-12-30T08:20:16.487Z,99.99
2018-12-30T08:21:16.501Z,99.95
2018-12-30T08:22:16.461Z,99.70
2018-12-30T08:23:21.466Z,99.99
2018-12-30T08:24:17.425Z,99.99
2018-12-30T08:25:16.415Z,99.99
2018-12-30T08:26:16.930Z,99.99
2018-12-30T08:27:16.394Z,99.99
2018-12-30T08:28:16.385Z,99.99
2018-12-30T08:29:16.366Z,99.99
2018-12-30T08:30:16.358Z,99.99
2018-12-30T08:31:16.483Z,99.99
2018-12-30T08:32:16.339Z,99.99
2018-12-30T08:33:16.328Z,99.99
2018-12-30T08:34:16.321Z,99.74
2018-12-30T08:35:16.282Z,99.99
2018-12-30T08:36:16.285Z,99.99
2018-12-30T08:37:16.303Z,99.99
2018-12-30T08:38:16.303Z,99.99
2018-12-30T08:39:16.298Z,99.99
2018-12-30T08:40:16.297Z,99.99
2018-12-30T08:41:16.243Z,99.91
2018-12-30T08:42:16.217Z,99.70
2018-12-30T08:43:17.278Z,99.99
2018-12-30T08:44:16.197Z,99.18
2018-12-30T08:45:16.192Z,99.08
2018-12-30T08:46:16.251Z,99.18
2018-12-30T08:47:16.212Z,99.18
2018-12-30T08:48:16.155Z,98.97
2018-12-30T08:49:16.200Z,99.49
2018-12-30T08:50:16.138Z,99.18
2018-12-30T08:51:16.149Z,99.29
2018-12-30T08:52:16.112Z,99.18
2018-12-30T08:53:16.132Z,99.39
2018-12-30T08:54:16.112Z,99.49
2018-12-30T08:55:16.091Z,99.14
2018-12-30T08:56:16.079Z,99.44
2018-12-30T08:57:16.107Z,99.29
2018-12-30T08:58:16.144Z,99.60
2018-12-30T08:59:16.052Z,99.04
2018-12-30T09:00:16.041Z,99.55
2018-12-30T09:01:16.041Z,99.34
2018-12-30T09:02:16.022Z,99.04
2018-12-30T09:03:16.449Z,99.44
2018-12-30T09:04:15.981Z,99.44
2018-12-30T09:05:15.974Z,99.14
2018-12-30T09:06:15.977Z,98.72
2018-12-30T09:07:15.978Z,98.62
2018-12-30T09:08:15.959Z,98.62
2018-12-30T09:09:16.012Z,98.52
2018-12-30T09:10:15.933Z,98.52
2018-12-30T09:11:17.218Z,98.99
2018-12-30T09:12:15.926Z,98.41
2018-12-30T09:13:15.906Z,97.96
2018-12-30T09:14:15.906Z,97.75
2018-12-30T09:15:15.905Z,97.23
2018-12-30T09:16:15.867Z,97.02
2018-12-30T09:17:15.914Z,96.88
2018-12-30T09:18:15.864Z,96.98
2018-12-30T09:19:15.839Z,97.60
2018-12-30T09:20:15.842Z,97.29
2018-12-30T09:21:15.826Z,97.08
2018-12-30T09:22:15.818Z,97.19
2018-12-30T09:23:15.930Z,96.15
2018-12-30T09:24:15.782Z,96.77
2018-12-30T09:25:15.784Z,96.67
2018-12-30T09:26:15.835Z,96.67
2018-12-30T09:27:15.758Z,96.77
2018-12-30T09:28:15.750Z,96.77
2018-12-30T09:29:15.725Z,96.36
2018-12-30T09:30:15.718Z,95.78
2018-12-30T09:31:15.759Z,96.26
2018-12-30T09:32:15.715Z,96.47
2018-12-30T09:33:15.692Z,97.08
2018-12-30T09:34:15.731Z,97.19
2018-12-30T09:35:15.647Z,96.67
2018-12-30T09:36:15.659Z,96.05
2018-12-30T09:37:15.716Z,96.98
2018-12-30T09:38:15.638Z,97.19
2018-12-30T09:39:15.629Z,96.98
2018-12-30T09:40:15.628Z,96.88
2018-12-30T09:41:15.604Z,96.26
2018-12-30T09:42:15.911Z,95.22
2018-12-30T09:43:15.595Z,95.02
2018-12-30T09:44:15.564Z,95.53
2018-12-30T09:45:15.556Z,96.15
2018-12-30T09:46:15.560Z,97.19
2018-12-30T09:47:15.540Z,96.67
2018-12-30T09:48:15.584Z,96.15
2018-12-30T09:49:15.523Z,95.43
2018-12-30T09:50:15.521Z,95.53
2018-12-30T09:51:15.499Z,96.11
2018-12-30T09:52:15.512Z,96.42
2018-12-30T09:53:15.507Z,96.52
2018-12-30T09:54:15.584Z,96.42
2018-12-30T09:55:15.451Z,96.01
2018-12-30T09:56:15.441Z,94.97
2018-12-30T09:57:15.434Z,95.03
2018-12-30T09:58:15.421Z,95.80
2018-12-30T09:59:15.418Z,95.49
2018-12-30T10:00:15.459Z,95.03
2018-12-30T10:01:15.438Z,94.82
2018-12-30T10:02:15.386Z,94.82
2018-12-30T10:03:15.398Z,95.34
2018-12-30T10:04:15.377Z,94.77
2018-12-30T10:05:15.346Z,94.72
2018-12-30T10:06:15.383Z,94.87
2018-12-30T10:07:15.456Z,93.90
2018-12-30T10:08:15.322Z,94.31
2018-12-30T10:09:15.312Z,94.21
2018-12-30T10:10:15.296Z,94.72
2018-12-30T10:11:15.305Z,95.34
2018-12-30T10:12:15.329Z,95.24
2018-12-30T10:13:15.309Z,94.31
2018-12-30T10:14:15.263Z,94.31
2018-12-30T10:15:15.236Z,94.31
2018-12-30T10:16:15.237Z,94.72
2018-12-30T10:17:15.414Z,94.99
2018-12-30T10:18:15.220Z,95.20
2018-12-30T10:19:15.230Z,94.68
2018-12-30T10:20:15.195Z,94.99
2018-12-30T10:21:15.181Z,95.30
2018-12-30T10:22:15.198Z,94.31
2018-12-30T10:23:15.163Z,94.99
2018-12-30T10:24:15.149Z,94.99
2018-12-30T10:25:15.140Z,95.40
2018-12-30T10:26:15.130Z,95.50
2018-12-30T10:27:15.114Z,94.93
2018-12-30T10:28:15.141Z,94.57
2018-12-30T10:29:15.094Z,94.99
2018-12-30T10:30:15.080Z,95.09
2018-12-30T10:31:15.069Z,95.61
2018-12-30T10:32:15.062Z,95.30
2018-12-30T10:33:15.066Z,94.78
2018-12-30T10:34:15.444Z,94.68
2018-12-30T10:35:15.031Z,93.96
2018-12-30T10:36:15.022Z,94.06
2018-12-30T10:37:15.019Z,94.78
2018-12-30T10:38:15.026Z,94.78
2018-12-30T10:39:15.002Z,93.85
2018-12-30T10:40:15.456Z,93.85
2018-12-30T10:41:14.983Z,95.09
2018-12-30T10:42:14.950Z,94.68
2018-12-30T10:43:14.942Z,94.57
2018-12-30T10:44:14.931Z,94.78
2018-12-30T10:45:14.927Z,94.99
2018-12-30T10:46:14.987Z,95.50
2018-12-30T10:47:14.902Z,95.20
2018-12-30T10:48:14.900Z,93.96
2018-12-30T10:49:14.876Z,93.96
2018-12-30T10:50:14.866Z,95.09
2018-12-30T10:51:14.863Z,95.40
2018-12-30T10:52:14.989Z,96.06
2018-12-30T10:53:14.827Z,95.76
2018-12-30T10:54:14.823Z,95.34
2018-12-30T10:55:14.813Z,95.14
2018-12-30T10:56:14.803Z,95.24
2018-12-30T10:57:14.940Z,95.45
2018-12-30T10:58:14.803Z,95.45
2018-12-30T10:59:14.803Z,95.70
2018-12-30T11:00:14.774Z,95.18
2018-12-30T11:01:14.729Z,96.11
2018-12-30T11:02:14.744Z,95.90
2018-12-30T11:03:14.757Z,96.31
2018-12-30T11:04:14.722Z,96.01
2018-12-30T11:05:14.715Z,96.31
2018-12-30T11:06:14.697Z,96.01
2018-12-30T11:07:14.720Z,95.07
2018-12-30T11:08:14.678Z,95.07
2018-12-30T11:09:14.695Z,95.59
2018-12-30T11:10:14.651Z,94.97
2018-12-30T11:11:14.641Z,95.18
2018-12-30T11:12:14.639Z,95.45
2018-12-30T11:13:14.617Z,95.45
2018-12-30T11:14:14.603Z,95.39
2018-12-30T11:15:14.607Z,94.87
2018-12-30T11:16:14.579Z,95.39
2018-12-30T11:17:14.638Z,96.01
2018-12-30T11:18:14.555Z,96.42
2018-12-30T11:19:16.306Z,95.86
2018-12-30T11:20:14.540Z,95.96
2018-12-30T11:21:14.591Z,96.11
2018-12-30T11:22:14.513Z,96.21
2018-12-30T11:23:14.541Z,96.27
2018-12-30T11:24:14.512Z,96.06
2018-12-30T11:25:14.505Z,96.37
2018-12-30T11:26:14.469Z,96.06
2018-12-30T11:27:14.907Z,95.65
2018-12-30T11:28:14.481Z,95.45
2018-12-30T11:29:14.510Z,94.93
2018-12-30T11:30:14.432Z,95.45
2018-12-30T11:31:14.432Z,95.34
2018-12-30T11:32:14.402Z,96.17
2018-12-30T11:33:14.928Z,95.45
2018-12-30T11:34:14.392Z,95.86
2018-12-30T11:35:14.431Z,95.96
2018-12-30T11:36:14.375Z,95.70
2018-12-30T11:37:14.353Z,95.86
2018-12-30T11:38:14.401Z,95.96
2018-12-30T11:39:14.335Z,95.65
2018-12-30T11:40:14.316Z,95.96
2018-12-30T11:41:14.334Z,94.72
2018-12-30T11:42:14.317Z,95.34
2018-12-30T11:43:14.460Z,95.65
2018-12-30T11:44:14.327Z,95.55
2018-12-30T11:45:14.288Z,95.59
2018-12-30T11:46:14.386Z,96.42
2018-12-30T11:47:14.270Z,96.52
2018-12-30T11:48:14.245Z,96.11
2018-12-30T11:49:14.263Z,94.77
2018-12-30T11:50:14.401Z,95.07
2018-12-30T11:51:14.226Z,95.80
2018-12-30T11:52:14.211Z,95.86
2018-12-30T11:53:14.201Z,96.06
2018-12-30T11:54:16.652Z,96.01
2018-12-30T11:55:14.209Z,95.55
2018-12-30T11:56:14.200Z,96.37
2018-12-30T11:57:14.164Z,96.48
2018-12-30T11:58:14.147Z,95.96
2018-12-30T11:59:14.165Z,95.96
2018-12-30T12:00:14.133Z,96.48
2018-12-30T12:01:14.126Z,95.96
2018-12-30T12:02:14.129Z,95.34
2018-12-30T12:03:14.088Z,95.96
2018-12-30T12:04:14.100Z,96.48
2018-12-30T12:05:14.064Z,95.86
2018-12-30T12:06:14.068Z,95.96
2018-12-30T12:07:14.063Z,95.76
2018-12-30T12:08:14.087Z,95.86
2018-12-30T12:09:14.021Z,95.24
2018-12-30T12:10:14.023Z,95.55
2018-12-30T12:13:18.698Z,96.02
2018-12-30T12:14:18.624Z,94.62
2018-12-30T12:15:18.630Z,95.14
2018-12-30T12:16:18.618Z,95.14
2018-12-30T12:17:18.595Z,95.03
2018-12-30T12:18:18.608Z,95.34
2018-12-30T12:19:18.732Z,95.34
2018-12-30T12:20:18.617Z,95.65
2018-12-30T12:21:18.555Z,95.86
2018-12-30T12:22:18.567Z,96.17
2018-12-30T12:23:18.563Z,94.78
2018-12-30T12:24:24.320Z,94.78
2018-12-30T12:25:19.595Z,94.99
2018-12-30T12:26:18.516Z,94.57
2018-12-30T12:27:18.504Z,94.78
2018-12-30T12:28:18.485Z,93.85
2018-12-30T12:29:18.509Z,94.06
2018-12-30T12:30:18.490Z,95.20
2018-12-30T12:31:18.517Z,94.99
2018-12-30T12:32:18.453Z,94.89
2018-12-30T12:33:18.461Z,94.68
2018-12-30T12:34:18.455Z,95.71
2018-12-30T12:35:18.409Z,95.50
2018-12-30T12:36:18.421Z,94.68
2018-12-30T12:37:18.826Z,94.37
2018-12-30T12:38:18.391Z,94.78
2018-12-30T12:39:18.367Z,94.68
2018-12-30T12:40:18.347Z,94.57
2018-12-30T12:41:18.353Z,94.68
2018-12-30T12:42:18.396Z,95.09
2018-12-30T12:45:17.620Z,94.21
2018-12-30T12:46:17.590Z,94.31
2018-12-30T12:47:17.564Z,94.21
2018-12-30T12:48:17.574Z,94.21
2018-12-30T12:49:17.540Z,94.10
2018-12-30T12:50:17.540Z,93.79
2018-12-30T12:51:17.860Z,93.90
2018-12-30T12:52:17.530Z,94.00
2018-12-30T12:53:17.501Z,94.72
2018-12-30T12:54:17.518Z,94.62
2018-12-30T12:55:17.480Z,95.14
2018-12-30T12:56:17.498Z,94.82
2018-12-30T12:57:17.565Z,95.34
2018-12-30T12:58:17.461Z,95.14
2018-12-30T12:59:17.434Z,94.21
2018-12-30T13:00:17.455Z,93.18
2018-12-30T13:01:17.447Z,93.79
2018-12-30T13:02:17.412Z,94.25
2018-12-30T13:03:17.429Z,94.15
2018-12-30T13:04:17.497Z,93.84
2018-12-30T13:05:17.373Z,94.93
2018-12-30T13:06:17.364Z,95.34
2018-12-30T13:07:17.403Z,95.03
2018-12-30T13:08:17.362Z,94.52
2018-12-30T13:09:17.387Z,94.82
2018-12-30T13:10:17.332Z,94.72
2018-12-30T13:11:17.302Z,95.14
2018-12-30T13:12:17.328Z,94.52